sensor_id;sensor_type;location;lat;lon;timestamp;temperature;humidity
18930;DHT22;43305;52.186;5.598;2024-02-26T00:00:18;5.20;99.90
18930;DHT22;43305;52.186;5.598;2024-02-26T00:02:45;5.20;99.90
18930;DHT22;43305;52.186;5.598;2024-02-26T00:05:14;5.20;99.90
18930;DHT22;43305;52.186;5.598;2024-02-26T00:07:41;5.20;99.90
18930;DHT22;43305;52.186;5.598;2024-02-26T00:10:10;5.20;99.90
18930;DHT22;43305;52.186;5.598;2024-02-26T00:12:36;5.20;99.90
18930;DHT22;43305;52.186;5.598;2024-02-26T00:15:05;5.10;99.90
18930;DHT22;43305;52.186;5.598;2024-02-26T00:17:32;5.10;99.90
18930;DHT22;43305;52.186;5.598;2024-02-26T00:19:59;5.10;99.90
18930;DHT22;43305;52.186;5.598;2024-02-26T00:22:26;5.10;99.90
18930;DHT22;43305;52.186;5.598;2024-02-26T00:24:53;5.10;99.90
18930;DHT22;43305;52.186;5.598;2024-02-26T00:27:22;5.00;99.90
18930;DHT22;43305;52.186;5.598;2024-02-26T00:29:48;5.00;99.90
18930;DHT22;43305;52.186;5.598;2024-02-26T00:32:15;5.00;99.90
18930;DHT22;43305;52.186;5.598;2024-02-26T00:34:43;5.00;99.90
18930;DHT22;43305;52.186;5.598;2024-02-26T00:37:10;5.00;99.90
18930;DHT22;43305;52.186;5.598;2024-02-26T00:39:37;4.90;99.90
18930;DHT22;43305;52.186;5.598;2024-02-26T00:42:05;4.90;99.90
18930;DHT22;43305;52.186;5.598;2024-02-26T00:44:33;4.90;99.90
18930;DHT22;43305;52.186;5.598;2024-02-26T00:47:00;4.90;99.90
18930;DHT22;43305;52.186;5.598;2024-02-26T00:49:27;4.90;99.90
18930;DHT22;43305;52.186;5.598;2024-02-26T00:51:54;4.90;99.90
18930;DHT22;43305;52.186;5.598;2024-02-26T00:54:21;4.80;99.90
18930;DHT22;43305;52.186;5.598;2024-02-26T00:56:48;4.80;99.90
18930;DHT22;43305;52.186;5.598;2024-02-26T00:59:15;4.80;99.90
18930;DHT22;43305;52.186;5.598;2024-02-26T01:01:43;4.80;99.90
18930;DHT22;43305;52.186;5.598;2024-02-26T01:04:09;4.80;99.90
18930;DHT22;43305;52.186;5.598;2024-02-26T01:06:37;4.80;99.90
18930;DHT22;43305;52.186;5.598;2024-02-26T01:09:04;4.70;99.90
18930;DHT22;43305;52.186;5.598;2024-02-26T01:11:31;4.70;99.90
18930;DHT22;43305;52.186;5.598;2024-02-26T01:14:00;4.70;99.90
18930;DHT22;43305;52.186;5.598;2024-02-26T01:16:26;4.70;99.90
18930;DHT22;43305;52.186;5.598;2024-02-26T01:18:56;4.70;99.90
18930;DHT22;43305;52.186;5.598;2024-02-26T01:21:22;4.70;99.90
18930;DHT22;43305;52.186;5.598;2024-02-26T01:23:49;4.70;99.90
18930;DHT22;43305;52.186;5.598;2024-02-26T01:26:16;4.60;99.90
18930;DHT22;43305;52.186;5.598;2024-02-26T01:28:50;4.70;99.90
18930;DHT22;43305;52.186;5.598;2024-02-26T01:31:20;4.60;99.90
18930;DHT22;43305;52.186;5.598;2024-02-26T01:33:49;4.60;99.90
18930;DHT22;43305;52.186;5.598;2024-02-26T01:36:20;4.60;99.90
18930;DHT22;43305;52.186;5.598;2024-02-26T01:38:50;4.60;99.90
18930;DHT22;43305;52.186;5.598;2024-02-26T01:41:19;4.60;99.90
18930;DHT22;43305;52.186;5.598;2024-02-26T01:43:48;4.60;99.90
18930;DHT22;43305;52.186;5.598;2024-02-26T01:46:16;4.60;99.90
18930;DHT22;43305;52.186;5.598;2024-02-26T01:48:50;4.60;99.90
18930;DHT22;43305;52.186;5.598;2024-02-26T01:51:22;4.60;99.90
18930;DHT22;43305;52.186;5.598;2024-02-26T01:53:49;4.60;99.90
18930;DHT22;43305;52.186;5.598;2024-02-26T01:56:20;4.60;99.90
18930;DHT22;43305;52.186;5.598;2024-02-26T01:58:54;4.60;99.90
18930;DHT22;43305;52.186;5.598;2024-02-26T02:01:21;4.60;99.90
18930;DHT22;43305;52.186;5.598;2024-02-26T02:03:49;4.60;99.90
18930;DHT22;43305;52.186;5.598;2024-02-26T02:06:16;4.60;99.90
18930;DHT22;43305;52.186;5.598;2024-02-26T02:08:48;4.70;99.90
18930;DHT22;43305;52.186;5.598;2024-02-26T02:11:19;4.70;99.90
18930;DHT22;43305;52.186;5.598;2024-02-26T02:13:46;4.70;99.90
18930;DHT22;43305;52.186;5.598;2024-02-26T02:16:15;4.70;99.90
18930;DHT22;43305;52.186;5.598;2024-02-26T02:18:44;4.70;99.90
18930;DHT22;43305;52.186;5.598;2024-02-26T02:21:12;4.70;99.90
18930;DHT22;43305;52.186;5.598;2024-02-26T02:23:41;4.70;99.90
18930;DHT22;43305;52.186;5.598;2024-02-26T02:26:12;4.80;99.90
18930;DHT22;43305;52.186;5.598;2024-02-26T02:28:39;4.80;99.90
18930;DHT22;43305;52.186;5.598;2024-02-26T02:31:07;4.80;99.90
18930;DHT22;43305;52.186;5.598;2024-02-26T02:33:34;4.80;99.90
18930;DHT22;43305;52.186;5.598;2024-02-26T02:36:02;4.80;99.90
18930;DHT22;43305;52.186;5.598;2024-02-26T02:38:30;4.80;99.90
18930;DHT22;43305;52.186;5.598;2024-02-26T02:40:59;4.90;99.90
18930;DHT22;43305;52.186;5.598;2024-02-26T02:43:26;4.80;99.90
18930;DHT22;43305;52.186;5.598;2024-02-26T02:45:53;4.90;99.90
18930;DHT22;43305;52.186;5.598;2024-02-26T02:48:19;4.90;99.90
18930;DHT22;43305;52.186;5.598;2024-02-26T02:50:46;4.80;99.90
18930;DHT22;43305;52.186;5.598;2024-02-26T02:53:16;4.90;99.90
18930;DHT22;43305;52.186;5.598;2024-02-26T02:55:48;4.90;99.90
18930;DHT22;43305;52.186;5.598;2024-02-26T02:58:15;4.90;99.90
18930;DHT22;43305;52.186;5.598;2024-02-26T03:00:42;4.90;99.90
18930;DHT22;43305;52.186;5.598;2024-02-26T03:03:09;4.90;99.90
18930;DHT22;43305;52.186;5.598;2024-02-26T03:05:36;4.90;99.90
18930;DHT22;43305;52.186;5.598;2024-02-26T03:08:03;4.90;99.90
18930;DHT22;43305;52.186;5.598;2024-02-26T03:10:30;4.90;99.90
18930;DHT22;43305;52.186;5.598;2024-02-26T03:13:02;4.80;99.90
18930;DHT22;43305;52.186;5.598;2024-02-26T03:15:29;4.80;99.90
18930;DHT22;43305;52.186;5.598;2024-02-26T03:17:55;4.80;99.90
18930;DHT22;43305;52.186;5.598;2024-02-26T03:20:22;4.80;99.90
18930;DHT22;43305;52.186;5.598;2024-02-26T03:22:49;4.80;99.90
18930;DHT22;43305;52.186;5.598;2024-02-26T03:25:16;4.80;99.90
18930;DHT22;43305;52.186;5.598;2024-02-26T03:27:45;4.80;99.90
18930;DHT22;43305;52.186;5.598;2024-02-26T03:30:14;4.80;99.90
18930;DHT22;43305;52.186;5.598;2024-02-26T03:32:40;4.80;99.90
18930;DHT22;43305;52.186;5.598;2024-02-26T03:35:08;4.80;99.90
18930;DHT22;43305;52.186;5.598;2024-02-26T03:37:35;4.80;99.90
18930;DHT22;43305;52.186;5.598;2024-02-26T03:40:02;4.80;99.90
18930;DHT22;43305;52.186;5.598;2024-02-26T03:42:29;4.80;99.90
18930;DHT22;43305;52.186;5.598;2024-02-26T03:44:55;4.80;99.90
18930;DHT22;43305;52.186;5.598;2024-02-26T03:47:24;4.70;99.90
18930;DHT22;43305;52.186;5.598;2024-02-26T03:49:50;4.80;99.90
18930;DHT22;43305;52.186;5.598;2024-02-26T03:52:20;4.80;99.90
18930;DHT22;43305;52.186;5.598;2024-02-26T03:54:50;4.80;99.90
18930;DHT22;43305;52.186;5.598;2024-02-26T03:57:19;4.80;99.90
18930;DHT22;43305;52.186;5.598;2024-02-26T03:59:46;4.70;99.90
18930;DHT22;43305;52.186;5.598;2024-02-26T04:02:16;4.70;99.90
18930;DHT22;43305;52.186;5.598;2024-02-26T04:04:50;4.70;99.90
18930;DHT22;43305;52.186;5.598;2024-02-26T04:07:17;4.80;99.90
18930;DHT22;43305;52.186;5.598;2024-02-26T04:09:47;4.80;99.90
18930;DHT22;43305;52.186;5.598;2024-02-26T04:12:16;4.80;99.90
18930;DHT22;43305;52.186;5.598;2024-02-26T04:14:45;4.70;99.90
18930;DHT22;43305;52.186;5.598;2024-02-26T04:17:12;4.80;99.90
18930;DHT22;43305;52.186;5.598;2024-02-26T04:19:39;4.80;99.90
18930;DHT22;43305;52.186;5.598;2024-02-26T04:22:07;4.70;99.90
18930;DHT22;43305;52.186;5.598;2024-02-26T04:24:37;4.80;99.90
18930;DHT22;43305;52.186;5.598;2024-02-26T04:27:04;4.80;99.90
18930;DHT22;43305;52.186;5.598;2024-02-26T04:29:30;4.80;99.90
18930;DHT22;43305;52.186;5.598;2024-02-26T04:31:58;4.80;99.90
18930;DHT22;43305;52.186;5.598;2024-02-26T04:34:25;4.80;99.90
18930;DHT22;43305;52.186;5.598;2024-02-26T04:36:52;4.80;99.90
18930;DHT22;43305;52.186;5.598;2024-02-26T04:39:20;4.80;99.90
18930;DHT22;43305;52.186;5.598;2024-02-26T04:41:50;4.80;99.90
18930;DHT22;43305;52.186;5.598;2024-02-26T04:44:20;4.80;99.90
18930;DHT22;43305;52.186;5.598;2024-02-26T04:46:49;4.90;99.90
18930;DHT22;43305;52.186;5.598;2024-02-26T04:49:19;4.80;99.90
18930;DHT22;43305;52.186;5.598;2024-02-26T04:51:46;4.80;99.90
18930;DHT22;43305;52.186;5.598;2024-02-26T04:54:15;4.90;99.90
18930;DHT22;43305;52.186;5.598;2024-02-26T04:56:44;4.90;99.90
18930;DHT22;43305;52.186;5.598;2024-02-26T04:59:11;4.80;99.90
18930;DHT22;43305;52.186;5.598;2024-02-26T05:01:37;4.90;99.90
18930;DHT22;43305;52.186;5.598;2024-02-26T05:04:05;4.80;99.90
18930;DHT22;43305;52.186;5.598;2024-02-26T05:06:36;4.80;99.90
18930;DHT22;43305;52.186;5.598;2024-02-26T05:09:03;4.90;99.90
18930;DHT22;43305;52.186;5.598;2024-02-26T05:11:30;4.90;99.90
18930;DHT22;43305;52.186;5.598;2024-02-26T05:13:58;4.90;99.90
18930;DHT22;43305;52.186;5.598;2024-02-26T05:16:25;4.90;99.90
18930;DHT22;43305;52.186;5.598;2024-02-26T05:18:52;4.80;99.90
18930;DHT22;43305;52.186;5.598;2024-02-26T05:21:19;4.80;99.90
18930;DHT22;43305;52.186;5.598;2024-02-26T05:23:46;4.80;99.90
18930;DHT22;43305;52.186;5.598;2024-02-26T05:26:19;4.80;99.90
18930;DHT22;43305;52.186;5.598;2024-02-26T05:28:46;4.80;99.90
18930;DHT22;43305;52.186;5.598;2024-02-26T05:31:20;4.80;99.90
18930;DHT22;43305;52.186;5.598;2024-02-26T05:33:48;4.80;99.90
18930;DHT22;43305;52.186;5.598;2024-02-26T05:36:19;4.90;99.90
18930;DHT22;43305;52.186;5.598;2024-02-26T05:38:50;4.80;99.90
18930;DHT22;43305;52.186;5.598;2024-02-26T05:41:20;4.80;99.90
18930;DHT22;43305;52.186;5.598;2024-02-26T05:43:48;4.80;99.90
18930;DHT22;43305;52.186;5.598;2024-02-26T05:46:20;4.80;99.90
18930;DHT22;43305;52.186;5.598;2024-02-26T05:48:51;4.80;99.90
18930;DHT22;43305;52.186;5.598;2024-02-26T05:51:19;4.80;99.90
18930;DHT22;43305;52.186;5.598;2024-02-26T05:53:45;4.80;99.90
18930;DHT22;43305;52.186;5.598;2024-02-26T05:56:19;4.80;99.90
18930;DHT22;43305;52.186;5.598;2024-02-26T05:58:47;4.80;99.90
18930;DHT22;43305;52.186;5.598;2024-02-26T06:01:15;4.80;99.90
18930;DHT22;43305;52.186;5.598;2024-02-26T06:03:46;4.80;99.90
18930;DHT22;43305;52.186;5.598;2024-02-26T06:06:15;4.80;99.90
18930;DHT22;43305;52.186;5.598;2024-02-26T06:08:42;4.80;99.90
18930;DHT22;43305;52.186;5.598;2024-02-26T06:11:08;4.90;99.90
18930;DHT22;43305;52.186;5.598;2024-02-26T06:13:35;4.90;99.90
18930;DHT22;43305;52.186;5.598;2024-02-26T06:16:02;4.90;99.90
18930;DHT22;43305;52.186;5.598;2024-02-26T06:18:30;4.90;99.90
18930;DHT22;43305;52.186;5.598;2024-02-26T06:20:58;4.90;99.90
18930;DHT22;43305;52.186;5.598;2024-02-26T06:23:25;4.90;99.90
18930;DHT22;43305;52.186;5.598;2024-02-26T06:25:52;4.90;99.90
18930;DHT22;43305;52.186;5.598;2024-02-26T06:28:19;4.90;99.90
18930;DHT22;43305;52.186;5.598;2024-02-26T06:30:46;4.90;99.90
18930;DHT22;43305;52.186;5.598;2024-02-26T06:33:16;4.90;99.90
18930;DHT22;43305;52.186;5.598;2024-02-26T06:35:44;4.90;99.90
18930;DHT22;43305;52.186;5.598;2024-02-26T06:38:13;4.90;99.90
18930;DHT22;43305;52.186;5.598;2024-02-26T06:40:40;4.90;99.90
18930;DHT22;43305;52.186;5.598;2024-02-26T06:43:06;4.90;99.90
18930;DHT22;43305;52.186;5.598;2024-02-26T06:45:33;5.00;99.90
18930;DHT22;43305;52.186;5.598;2024-02-26T06:48:00;5.00;99.90
18930;DHT22;43305;52.186;5.598;2024-02-26T06:50:28;5.00;99.90
18930;DHT22;43305;52.186;5.598;2024-02-26T06:52:55;5.00;99.90
18930;DHT22;43305;52.186;5.598;2024-02-26T06:55:23;5.00;99.90
18930;DHT22;43305;52.186;5.598;2024-02-26T06:57:49;5.00;99.90
18930;DHT22;43305;52.186;5.598;2024-02-26T07:00:20;5.00;99.90
18930;DHT22;43305;52.186;5.598;2024-02-26T07:02:50;5.00;99.90
18930;DHT22;43305;52.186;5.598;2024-02-26T07:05:19;5.10;99.90
18930;DHT22;43305;52.186;5.598;2024-02-26T07:07:46;5.00;99.90
18930;DHT22;43305;52.186;5.598;2024-02-26T07:10:15;5.10;99.90
18930;DHT22;43305;52.186;5.598;2024-02-26T07:12:49;5.10;99.90
18930;DHT22;43305;52.186;5.598;2024-02-26T07:15:20;5.10;99.90
18930;DHT22;43305;52.186;5.598;2024-02-26T07:17:49;5.10;99.90
18930;DHT22;43305;52.186;5.598;2024-02-26T07:20:16;5.10;99.90
18930;DHT22;43305;52.186;5.598;2024-02-26T07:22:44;5.10;99.90
18930;DHT22;43305;52.186;5.598;2024-02-26T07:25:11;5.10;99.90
18930;DHT22;43305;52.186;5.598;2024-02-26T07:27:39;5.10;99.90
18930;DHT22;43305;52.186;5.598;2024-02-26T07:30:09;5.10;99.90
18930;DHT22;43305;52.186;5.598;2024-02-26T07:32:37;5.10;99.90
18930;DHT22;43305;52.186;5.598;2024-02-26T07:35:04;5.10;99.90
18930;DHT22;43305;52.186;5.598;2024-02-26T07:37:31;5.10;99.90
18930;DHT22;43305;52.186;5.598;2024-02-26T07:39:58;5.10;99.90
18930;DHT22;43305;52.186;5.598;2024-02-26T07:42:25;5.10;99.90
18930;DHT22;43305;52.186;5.598;2024-02-26T07:44:52;5.10;99.90
18930;DHT22;43305;52.186;5.598;2024-02-26T07:47:20;5.10;99.90
18930;DHT22;43305;52.186;5.598;2024-02-26T07:49:50;5.10;99.90
18930;DHT22;43305;52.186;5.598;2024-02-26T07:52:16;5.10;99.90
18930;DHT22;43305;52.186;5.598;2024-02-26T07:54:45;5.10;99.90
18930;DHT22;43305;52.186;5.598;2024-02-26T07:57:12;5.10;99.90
18930;DHT22;43305;52.186;5.598;2024-02-26T07:59:42;5.10;99.90
18930;DHT22;43305;52.186;5.598;2024-02-26T08:02:10;5.10;99.90
18930;DHT22;43305;52.186;5.598;2024-02-26T08:04:38;5.20;99.90
18930;DHT22;43305;52.186;5.598;2024-02-26T08:07:06;5.20;99.90
18930;DHT22;43305;52.186;5.598;2024-02-26T08:09:33;5.20;99.90
18930;DHT22;43305;52.186;5.598;2024-02-26T08:12:00;5.20;99.90
18930;DHT22;43305;52.186;5.598;2024-02-26T08:14:26;5.20;99.90
18930;DHT22;43305;52.186;5.598;2024-02-26T08:16:53;5.20;99.90
18930;DHT22;43305;52.186;5.598;2024-02-26T08:19:21;5.30;99.90
18930;DHT22;43305;52.186;5.598;2024-02-26T08:21:49;5.30;99.90
18930;DHT22;43305;52.186;5.598;2024-02-26T08:24:20;5.30;99.90
18930;DHT22;43305;52.186;5.598;2024-02-26T08:26:52;5.30;99.90
18930;DHT22;43305;52.186;5.598;2024-02-26T08:29:19;5.30;99.90
18930;DHT22;43305;52.186;5.598;2024-02-26T08:31:48;5.30;99.90
18930;DHT22;43305;52.186;5.598;2024-02-26T08:34:15;5.30;99.90
18930;DHT22;43305;52.186;5.598;2024-02-26T08:36:44;5.30;99.90
18930;DHT22;43305;52.186;5.598;2024-02-26T08:39:13;5.30;99.90
18930;DHT22;43305;52.186;5.598;2024-02-26T08:41:40;5.30;99.90
18930;DHT22;43305;52.186;5.598;2024-02-26T08:44:06;5.30;99.90
18930;DHT22;43305;52.186;5.598;2024-02-26T08:46:33;5.30;99.90
18930;DHT22;43305;52.186;5.598;2024-02-26T08:49:00;5.30;99.90
18930;DHT22;43305;52.186;5.598;2024-02-26T08:51:27;5.30;99.90
18930;DHT22;43305;52.186;5.598;2024-02-26T08:53:53;5.30;99.90
18930;DHT22;43305;52.186;5.598;2024-02-26T08:56:22;5.30;99.90
18930;DHT22;43305;52.186;5.598;2024-02-26T08:58:48;5.30;99.90
18930;DHT22;43305;52.186;5.598;2024-02-26T09:01:19;5.30;99.90
18930;DHT22;43305;52.186;5.598;2024-02-26T09:03:45;5.30;99.90
18930;DHT22;43305;52.186;5.598;2024-02-26T09:06:15;5.30;99.90
18930;DHT22;43305;52.186;5.598;2024-02-26T09:08:45;5.30;99.90
18930;DHT22;43305;52.186;5.598;2024-02-26T09:11:23;5.40;99.90
18930;DHT22;43305;52.186;5.598;2024-02-26T09:13:50;5.30;99.90
18930;DHT22;43305;52.186;5.598;2024-02-26T09:16:20;5.40;99.90
18930;DHT22;43305;52.186;5.598;2024-02-26T09:18:49;5.40;99.90
18930;DHT22;43305;52.186;5.598;2024-02-26T09:21:18;5.30;99.90
18930;DHT22;43305;52.186;5.598;2024-02-26T09:23:48;5.40;99.90
18930;DHT22;43305;52.186;5.598;2024-02-26T09:26:15;5.40;99.90
18930;DHT22;43305;52.186;5.598;2024-02-26T09:28:45;5.40;99.90
18930;DHT22;43305;52.186;5.598;2024-02-26T09:31:15;5.40;99.90
18930;DHT22;43305;52.186;5.598;2024-02-26T09:33:44;5.40;99.90
18930;DHT22;43305;52.186;5.598;2024-02-26T09:36:11;5.50;99.90
18930;DHT22;43305;52.186;5.598;2024-02-26T09:38:37;5.50;99.90
18930;DHT22;43305;52.186;5.598;2024-02-26T09:41:05;5.50;99.90
18930;DHT22;43305;52.186;5.598;2024-02-26T09:43:34;5.50;99.90
18930;DHT22;43305;52.186;5.598;2024-02-26T09:46:03;5.50;99.90
18930;DHT22;43305;52.186;5.598;2024-02-26T09:48:31;5.50;99.90
18930;DHT22;43305;52.186;5.598;2024-02-26T09:51:02;5.60;99.90
18930;DHT22;43305;52.186;5.598;2024-02-26T09:53:29;5.60;99.90
18930;DHT22;43305;52.186;5.598;2024-02-26T09:55:57;5.60;99.90
18930;DHT22;43305;52.186;5.598;2024-02-26T09:58:24;5.60;99.90
18930;DHT22;43305;52.186;5.598;2024-02-26T10:00:56;5.60;99.90
18930;DHT22;43305;52.186;5.598;2024-02-26T10:03:30;5.60;99.90
18930;DHT22;43305;52.186;5.598;2024-02-26T10:06:01;5.60;99.90
18930;DHT22;43305;52.186;5.598;2024-02-26T10:08:31;5.70;99.90
18930;DHT22;43305;52.186;5.598;2024-02-26T10:11:02;5.70;99.90
18930;DHT22;43305;52.186;5.598;2024-02-26T10:13:29;5.70;99.90
18930;DHT22;43305;52.186;5.598;2024-02-26T10:15:56;5.60;99.90
18930;DHT22;43305;52.186;5.598;2024-02-26T10:18:23;5.70;99.90
18930;DHT22;43305;52.186;5.598;2024-02-26T10:21:00;5.70;99.90
18930;DHT22;43305;52.186;5.598;2024-02-26T10:23:27;5.70;99.90
18930;DHT22;43305;52.186;5.598;2024-02-26T10:25:55;5.80;99.90
18930;DHT22;43305;52.186;5.598;2024-02-26T10:28:24;5.70;99.90
18930;DHT22;43305;52.186;5.598;2024-02-26T10:30:51;5.70;99.90
18930;DHT22;43305;52.186;5.598;2024-02-26T10:33:19;5.70;99.90
18930;DHT22;43305;52.186;5.598;2024-02-26T10:35:46;5.80;99.90
18930;DHT22;43305;52.186;5.598;2024-02-26T10:38:15;5.80;99.90
18930;DHT22;43305;52.186;5.598;2024-02-26T10:40:45;5.80;99.90
18930;DHT22;43305;52.186;5.598;2024-02-26T10:43:15;5.80;99.90
18930;DHT22;43305;52.186;5.598;2024-02-26T10:45:44;5.80;99.90
18930;DHT22;43305;52.186;5.598;2024-02-26T10:48:14;5.80;99.90
18930;DHT22;43305;52.186;5.598;2024-02-26T10:50:43;5.80;99.90
18930;DHT22;43305;52.186;5.598;2024-02-26T10:53:15;5.90;99.90
18930;DHT22;43305;52.186;5.598;2024-02-26T10:55:52;5.80;99.90
18930;DHT22;43305;52.186;5.598;2024-02-26T10:58:21;5.90;99.90
18930;DHT22;43305;52.186;5.598;2024-02-26T11:00:51;5.90;99.90
18930;DHT22;43305;52.186;5.598;2024-02-26T11:03:18;5.90;99.90
18930;DHT22;43305;52.186;5.598;2024-02-26T11:05:48;5.90;99.90
18930;DHT22;43305;52.186;5.598;2024-02-26T11:08:18;5.90;99.90
18930;DHT22;43305;52.186;5.598;2024-02-26T11:10:50;5.90;99.90
18930;DHT22;43305;52.186;5.598;2024-02-26T11:13:19;5.90;99.90
18930;DHT22;43305;52.186;5.598;2024-02-26T11:15:51;5.90;99.90
18930;DHT22;43305;52.186;5.598;2024-02-26T11:18:21;6.00;99.90
18930;DHT22;43305;52.186;5.598;2024-02-26T11:20:49;6.00;99.90
18930;DHT22;43305;52.186;5.598;2024-02-26T11:23:19;6.00;99.90
18930;DHT22;43305;52.186;5.598;2024-02-26T11:25:46;6.00;99.90
18930;DHT22;43305;52.186;5.598;2024-02-26T11:28:15;6.10;99.90
18930;DHT22;43305;52.186;5.598;2024-02-26T11:30:46;6.00;99.90
18930;DHT22;43305;52.186;5.598;2024-02-26T11:33:14;6.10;99.90
18930;DHT22;43305;52.186;5.598;2024-02-26T11:35:42;6.00;99.90
18930;DHT22;43305;52.186;5.598;2024-02-26T11:38:19;6.10;99.90
18930;DHT22;43305;52.186;5.598;2024-02-26T11:40:50;6.10;99.90
18930;DHT22;43305;52.186;5.598;2024-02-26T11:43:23;6.20;99.90
18930;DHT22;43305;52.186;5.598;2024-02-26T11:45:50;6.20;99.90
18930;DHT22;43305;52.186;5.598;2024-02-26T11:48:22;6.20;99.90
18930;DHT22;43305;52.186;5.598;2024-02-26T11:50:50;6.20;99.90
18930;DHT22;43305;52.186;5.598;2024-02-26T11:53:25;6.20;99.90
18930;DHT22;43305;52.186;5.598;2024-02-26T11:58:59;6.20;99.90
18930;DHT22;43305;52.186;5.598;2024-02-26T12:01:42;6.30;99.90
18930;DHT22;43305;52.186;5.598;2024-02-26T12:04:13;6.20;99.90
18930;DHT22;43305;52.186;5.598;2024-02-26T12:06:43;6.30;99.90
18930;DHT22;43305;52.186;5.598;2024-02-26T12:09:12;6.30;99.90
18930;DHT22;43305;52.186;5.598;2024-02-26T12:11:40;6.20;99.90
18930;DHT22;43305;52.186;5.598;2024-02-26T12:14:09;6.20;99.90
18930;DHT22;43305;52.186;5.598;2024-02-26T12:16:37;6.20;99.90
18930;DHT22;43305;52.186;5.598;2024-02-26T12:19:05;6.20;99.90
18930;DHT22;43305;52.186;5.598;2024-02-26T12:21:34;6.20;99.90
18930;DHT22;43305;52.186;5.598;2024-02-26T12:24:11;6.20;99.90
18930;DHT22;43305;52.186;5.598;2024-02-26T12:26:39;6.10;99.90
18930;DHT22;43305;52.186;5.598;2024-02-26T12:29:09;6.20;99.90
18930;DHT22;43305;52.186;5.598;2024-02-26T12:31:36;6.10;99.90
18930;DHT22;43305;52.186;5.598;2024-02-26T12:34:04;6.10;99.90
18930;DHT22;43305;52.186;5.598;2024-02-26T12:36:34;6.10;99.90
18930;DHT22;43305;52.186;5.598;2024-02-26T12:39:02;6.10;99.90
18930;DHT22;43305;52.186;5.598;2024-02-26T12:41:34;6.10;99.90
18930;DHT22;43305;52.186;5.598;2024-02-26T12:44:01;6.20;99.90
18930;DHT22;43305;52.186;5.598;2024-02-26T12:46:28;6.20;99.90
18930;DHT22;43305;52.186;5.598;2024-02-26T12:48:56;6.30;99.90
18930;DHT22;43305;52.186;5.598;2024-02-26T12:51:25;6.30;99.90
18930;DHT22;43305;52.186;5.598;2024-02-26T12:53:52;6.20;99.90
18930;DHT22;43305;52.186;5.598;2024-02-26T12:56:20;6.20;99.90
18930;DHT22;43305;52.186;5.598;2024-02-26T12:58:50;6.30;99.90
18930;DHT22;43305;52.186;5.598;2024-02-26T13:01:23;6.30;99.90
18930;DHT22;43305;52.186;5.598;2024-02-26T13:03:51;6.30;99.90
18930;DHT22;43305;52.186;5.598;2024-02-26T13:06:19;6.30;99.90
18930;DHT22;43305;52.186;5.598;2024-02-26T13:08:54;6.30;99.90
18930;DHT22;43305;52.186;5.598;2024-02-26T13:11:23;6.30;99.90
18930;DHT22;43305;52.186;5.598;2024-02-26T13:13:51;6.40;99.90
18930;DHT22;43305;52.186;5.598;2024-02-26T13:16:18;6.40;99.90
18930;DHT22;43305;52.186;5.598;2024-02-26T13:18:45;6.40;99.90
18930;DHT22;43305;52.186;5.598;2024-02-26T13:21:14;6.40;99.90
18930;DHT22;43305;52.186;5.598;2024-02-26T13:23:42;6.40;99.90
18930;DHT22;43305;52.186;5.598;2024-02-26T13:26:12;6.40;99.90
18930;DHT22;43305;52.186;5.598;2024-02-26T13:28:40;6.40;99.90
18930;DHT22;43305;52.186;5.598;2024-02-26T13:31:08;6.50;99.90
18930;DHT22;43305;52.186;5.598;2024-02-26T13:33:35;6.50;99.90
18930;DHT22;43305;52.186;5.598;2024-02-26T13:36:03;6.40;99.90
18930;DHT22;43305;52.186;5.598;2024-02-26T13:38:30;6.50;99.90
18930;DHT22;43305;52.186;5.598;2024-02-26T13:40:57;6.50;99.90
18930;DHT22;43305;52.186;5.598;2024-02-26T13:43:24;6.50;99.90
18930;DHT22;43305;52.186;5.598;2024-02-26T13:45:50;6.50;99.90
18930;DHT22;43305;52.186;5.598;2024-02-26T13:48:21;6.50;99.90
18930;DHT22;43305;52.186;5.598;2024-02-26T13:50:48;6.50;99.90
18930;DHT22;43305;52.186;5.598;2024-02-26T13:53:15;6.40;99.90
18930;DHT22;43305;52.186;5.598;2024-02-26T13:55:42;6.50;99.90
18930;DHT22;43305;52.186;5.598;2024-02-26T13:58:12;6.50;99.90
18930;DHT22;43305;52.186;5.598;2024-02-26T14:00:39;6.50;99.90
18930;DHT22;43305;52.186;5.598;2024-02-26T14:03:07;6.60;99.90
18930;DHT22;43305;52.186;5.598;2024-02-26T14:05:35;6.50;99.90
18930;DHT22;43305;52.186;5.598;2024-02-26T14:08:02;6.50;99.90
18930;DHT22;43305;52.186;5.598;2024-02-26T14:10:29;6.50;99.90
18930;DHT22;43305;52.186;5.598;2024-02-26T14:12:57;6.50;99.90
18930;DHT22;43305;52.186;5.598;2024-02-26T14:15:24;6.60;99.90
18930;DHT22;43305;52.186;5.598;2024-02-26T14:17:51;6.60;99.90
18930;DHT22;43305;52.186;5.598;2024-02-26T14:20:21;6.50;99.90
18930;DHT22;43305;52.186;5.598;2024-02-26T14:22:51;6.50;99.90
18930;DHT22;43305;52.186;5.598;2024-02-26T14:25:18;6.50;99.90
18930;DHT22;43305;52.186;5.598;2024-02-26T14:27:46;6.60;99.90
18930;DHT22;43305;52.186;5.598;2024-02-26T14:30:16;6.60;99.90
18930;DHT22;43305;52.186;5.598;2024-02-26T14:32:45;6.60;99.90
18930;DHT22;43305;52.186;5.598;2024-02-26T14:35:11;6.60;99.90
18930;DHT22;43305;52.186;5.598;2024-02-26T14:37:38;6.60;99.90
18930;DHT22;43305;52.186;5.598;2024-02-26T14:40:08;6.60;99.90
18930;DHT22;43305;52.186;5.598;2024-02-26T14:42:35;6.60;99.90
18930;DHT22;43305;52.186;5.598;2024-02-26T14:45:04;6.60;99.90
18930;DHT22;43305;52.186;5.598;2024-02-26T14:47:34;6.60;99.90
18930;DHT22;43305;52.186;5.598;2024-02-26T14:50:01;6.60;99.90
18930;DHT22;43305;52.186;5.598;2024-02-26T14:52:28;6.60;99.90
18930;DHT22;43305;52.186;5.598;2024-02-26T14:54:54;6.60;99.90
18930;DHT22;43305;52.186;5.598;2024-02-26T14:57:24;6.60;99.90
18930;DHT22;43305;52.186;5.598;2024-02-26T14:59:50;6.60;99.90
18930;DHT22;43305;52.186;5.598;2024-02-26T15:02:20;6.60;99.90
18930;DHT22;43305;52.186;5.598;2024-02-26T15:04:49;6.60;99.90
18930;DHT22;43305;52.186;5.598;2024-02-26T15:07:19;6.60;99.90
18930;DHT22;43305;52.186;5.598;2024-02-26T15:09:46;6.60;99.90
18930;DHT22;43305;52.186;5.598;2024-02-26T15:12:14;6.70;99.90
18930;DHT22;43305;52.186;5.598;2024-02-26T15:14:44;6.60;99.90
18930;DHT22;43305;52.186;5.598;2024-02-26T15:17:11;6.60;99.90
18930;DHT22;43305;52.186;5.598;2024-02-26T15:19:39;6.60;99.90
18930;DHT22;43305;52.186;5.598;2024-02-26T15:22:06;6.60;99.90
18930;DHT22;43305;52.186;5.598;2024-02-26T15:24:33;6.60;99.90
18930;DHT22;43305;52.186;5.598;2024-02-26T15:26:59;6.60;99.90
18930;DHT22;43305;52.186;5.598;2024-02-26T15:29:26;6.60;99.90
18930;DHT22;43305;52.186;5.598;2024-02-26T15:31:54;6.60;99.90
18930;DHT22;43305;52.186;5.598;2024-02-26T15:34:21;6.60;99.90
18930;DHT22;43305;52.186;5.598;2024-02-26T15:36:48;6.60;99.90
18930;DHT22;43305;52.186;5.598;2024-02-26T15:39:15;6.70;99.90
18930;DHT22;43305;52.186;5.598;2024-02-26T15:41:41;6.60;99.90
18930;DHT22;43305;52.186;5.598;2024-02-26T15:44:08;6.70;99.90
18930;DHT22;43305;52.186;5.598;2024-02-26T15:46:39;6.60;99.90
18930;DHT22;43305;52.186;5.598;2024-02-26T15:49:07;6.60;99.90
18930;DHT22;43305;52.186;5.598;2024-02-26T15:51:34;6.60;99.90
18930;DHT22;43305;52.186;5.598;2024-02-26T15:54:01;6.60;99.90